Time;durP1;ratioP1;P1;durP2;ratioP2;P2;SDS_P1;SDS_P2;PMS_P1;PMS_P2;Temp;Humidity;BMP_temperature;BMP_pressure;BME280_temperature;BME280_humidity;BME280_pressure;Samples;Min_cycle;Max_cycle;Signal;HPM_P1;HPM_P2
2023/03/19 00:00:46;;;;;;;11.03;7.10;;;11.90;99.90;;;;;;5040386;28;20481;-67
2023/03/19 00:03:12;;;;;;;14.10;7.67;;;11.90;99.90;;;;;;5040473;28;20907;-63
2023/03/19 00:05:39;;;;;;;13.60;7.57;;;11.90;99.90;;;;;;5026808;28;20500;-64
2023/03/19 00:08:12;;;;;;;12.50;8.07;;;11.90;99.90;;;;;;5034381;28;20513;-66
2023/03/19 00:10:39;;;;;;;12.67;7.67;;;11.90;99.90;;;;;;5044233;28;20460;-65
2023/03/19 00:13:07;;;;;;;10.53;7.40;;;11.80;99.90;;;;;;5042616;28;20452;-69
2023/03/19 00:15:38;;;;;;;13.30;6.67;;;11.80;99.90;;;;;;5039925;28;20518;-65
2023/03/19 00:18:05;;;;;;;11.43;7.10;;;11.80;99.90;;;;;;5032353;28;20576;-67
2023/03/19 00:20:32;;;;;;;10.17;7.23;;;11.70;99.90;;;;;;5036294;28;20472;-62
2023/03/19 00:22:59;;;;;;;13.47;7.57;;;11.70;99.90;;;;;;5046573;28;20448;-61
2023/03/19 00:25:26;;;;;;;17.03;7.53;;;11.70;99.90;;;;;;5045538;28;20478;-60
2023/03/19 00:27:54;;;;;;;10.27;7.03;;;11.60;99.90;;;;;;5038439;28;20449;-63
2023/03/19 00:30:21;;;;;;;10.97;7.50;;;11.60;99.90;;;;;;5039888;28;20485;-60
2023/03/19 00:32:49;;;;;;;13.40;8.17;;;11.60;99.90;;;;;;5054907;28;20464;-66
2023/03/19 00:35:16;;;;;;;13.10;8.40;;;11.60;99.90;;;;;;5055078;28;20444;-60
2023/03/19 00:37:43;;;;;;;14.77;9.97;;;11.50;99.90;;;;;;5049618;28;20472;-64
2023/03/19 00:40:12;;;;;;;14.67;9.80;;;11.50;99.90;;;;;;5050065;28;20466;-66
2023/03/19 00:42:38;;;;;;;13.13;8.13;;;11.50;99.90;;;;;;5043083;28;20506;-68
2023/03/19 00:45:07;;;;;;;12.47;9.17;;;11.40;99.90;;;;;;5044896;28;20444;-69
2023/03/19 00:47:34;;;;;;;11.17;8.20;;;11.40;99.90;;;;;;5054413;28;20445;-66
2023/03/19 00:50:03;;;;;;;11.73;8.67;;;11.40;99.90;;;;;;5038806;28;20468;-61
2023/03/19 00:52:30;;;;;;;17.07;9.03;;;11.40;99.90;;;;;;5052388;28;20440;-70
2023/03/19 00:54:59;;;;;;;18.80;10.40;;;11.40;99.90;;;;;;5044119;28;20909;-66
2023/03/19 00:57:29;;;;;;;12.90;9.10;;;11.30;99.90;;;;;;5044281;28;20475;-67
2023/03/19 00:59:56;;;;;;;8.77;7.70;;;11.30;99.90;;;;;;5054961;28;20441;-65
2023/03/19 01:02:23;;;;;;;13.83;8.77;;;11.30;99.90;;;;;;5037501;28;20943;-63
2023/03/19 01:04:50;;;;;;;14.97;9.10;;;11.20;99.90;;;;;;5036369;28;20455;-67
2023/03/19 01:07:18;;;;;;;16.17;9.83;;;11.20;99.90;;;;;;5049334;28;20452;-60
2023/03/19 01:09:45;;;;;;;13.77;8.30;;;11.20;99.90;;;;;;5024085;28;20452;-66
2023/03/19 01:12:12;;;;;;;12.07;8.63;;;11.20;99.90;;;;;;5039062;28;20447;-69
2023/03/19 01:14:39;;;;;;;13.27;9.87;;;11.20;99.90;;;;;;5053504;28;20467;-59
2023/03/19 01:17:08;;;;;;;19.17;9.30;;;11.20;99.90;;;;;;5044039;28;20484;-67
2023/03/19 01:19:35;;;;;;;15.73;8.70;;;11.20;99.90;;;;;;5049024;28;20456;-68
2023/03/19 01:22:04;;;;;;;12.23;8.30;;;11.10;99.90;;;;;;5047259;28;20478;-68
2023/03/19 01:24:32;;;;;;;14.33;8.80;;;11.10;99.90;;;;;;5044431;28;20508;-61
2023/03/19 01:27:00;;;;;;;19.07;8.80;;;11.10;99.90;;;;;;5044857;28;20475;-65
2023/03/19 01:29:26;;;;;;;11.87;8.20;;;11.00;99.90;;;;;;5038195;28;20484;-67
2023/03/19 01:31:53;;;;;;;10.07;7.70;;;11.00;99.90;;;;;;5041111;28;20472;-62
2023/03/19 01:34:21;;;;;;;12.10;8.40;;;11.00;99.90;;;;;;5042794;28;20491;-69
2023/03/19 01:36:48;;;;;;;21.73;11.53;;;11.00;99.90;;;;;;5035290;28;20464;-60
2023/03/19 01:39:15;;;;;;;15.80;8.67;;;11.00;99.90;;;;;;5051758;28;20476;-64
2023/03/19 01:41:44;;;;;;;18.47;10.73;;;11.00;99.90;;;;;;5045794;28;20491;-69
2023/03/19 01:44:25;;;;;;;12.90;8.93;;;10.90;99.90;;;;;;5038220;28;20471;-70
2023/03/19 01:46:53;;;;;;;16.20;10.77;;;10.90;99.90;;;;;;5043991;28;20476;-65
2023/03/19 01:49:24;;;;;;;16.83;9.23;;;10.90;99.90;;;;;;5041905;28;20471;-60
2023/03/19 01:51:55;;;;;;;19.63;10.93;;;10.80;99.90;;;;;;5037178;28;20481;-61
2023/03/19 01:54:24;;;;;;;17.40;11.70;;;10.80;99.90;;;;;;5048650;28;20441;-63
2023/03/19 01:57:05;;;;;;;19.60;10.37;;;10.70;99.90;;;;;;5033440;28;20519;-67
2023/03/19 01:59:36;;;;;;;13.27;8.67;;;10.70;99.90;;;;;;5050050;28;20468;-67
2023/03/19 02:02:08;;;;;;;20.07;9.83;;;10.70;99.90;;;;;;5049714;28;20468;-64
2023/03/19 02:04:45;;;;;;;13.00;8.60;;;10.70;99.90;;;;;;5039562;28;20467;-69
2023/03/19 02:07:13;;;;;;;12.37;8.60;;;10.70;99.90;;;;;;5051011;28;20551;-62
2023/03/19 02:09:40;;;;;;;12.47;8.80;;;10.70;99.90;;;;;;5051847;28;20452;-65
2023/03/19 02:12:10;;;;;;;15.00;8.90;;;10.70;99.90;;;;;;5037041;28;20483;-63
2023/03/19 02:14:38;;;;;;;17.33;9.77;;;10.70;99.90;;;;;;5037901;28;20468;-67
2023/03/19 02:17:08;;;;;;;16.63;9.07;;;10.60;99.90;;;;;;5028294;28;20885;-71
2023/03/19 02:19:47;;;;;;;11.93;8.17;;;10.60;99.90;;;;;;5040032;28;20452;-64
2023/03/19 02:22:18;;;;;;;13.50;9.20;;;10.60;99.90;;;;;;5024507;28;20493;-63
2023/03/19 02:24:52;;;;;;;15.40;7.87;;;10.60;99.90;;;;;;5033901;28;20571;-62
2023/03/19 02:27:20;;;;;;;10.10;8.97;;;10.50;99.90;;;;;;5024109;28;20421;-55
2023/03/19 02:29:47;;;;;;;14.20;8.00;;;10.50;99.90;;;;;;5035799;28;20449;-58
2023/03/19 02:32:15;;;;;;;14.60;8.80;;;10.60;99.90;;;;;;5036064;28;20456;-59
2023/03/19 02:34:43;;;;;;;16.10;9.30;;;10.50;99.90;;;;;;5035707;28;20492;-65
2023/03/19 02:37:15;;;;;;;12.33;9.07;;;10.50;99.90;;;;;;5031145;28;20504;-65
2023/03/19 02:39:50;;;;;;;14.00;8.73;;;10.50;99.90;;;;;;5048258;28;20453;-59
2023/03/19 02:42:21;;;;;;;17.63;8.20;;;10.50;99.90;;;;;;5035676;28;20560;-62
2023/03/19 02:44:48;;;;;;;16.17;8.13;;;10.50;99.90;;;;;;5036036;28;20452;-58
2023/03/19 02:47:15;;;;;;;12.20;8.50;;;10.50;99.90;;;;;;5036002;28;20492;-65
2023/03/19 02:49:45;;;;;;;14.40;8.60;;;10.50;99.90;;;;;;5035098;28;20460;-57
2023/03/19 02:52:12;;;;;;;15.10;8.50;;;10.50;99.90;;;;;;5037210;28;20487;-65
2023/03/19 02:54:39;;;;;;;17.17;9.13;;;10.60;99.90;;;;;;5039033;28;20499;-70
2023/03/19 02:57:06;;;;;;;11.10;7.10;;;10.60;99.90;;;;;;5046826;28;20503;-56
2023/03/19 02:59:35;;;;;;;11.63;7.00;;;10.60;99.90;;;;;;5058624;28;20447;-60
2023/03/19 03:02:02;;;;;;;16.10;7.53;;;10.60;99.90;;;;;;5059206;28;20491;-63
2023/03/19 03:04:29;;;;;;;14.90;9.43;;;10.60;99.90;;;;;;5042872;28;20456;-68
2023/03/19 03:07:00;;;;;;;15.43;8.07;;;10.60;99.90;;;;;;5025042;28;20464;-61
2023/03/19 03:09:27;;;;;;;13.90;8.83;;;10.60;99.90;;;;;;5021771;28;20515;-69
2023/03/19 03:11:54;;;;;;;14.10;9.60;;;10.50;99.90;;;;;;5028635;28;20980;-70
2023/03/19 03:14:21;;;;;;;16.20;8.70;;;10.50;99.90;;;;;;5035026;28;20464;-57
2023/03/19 03:16:50;;;;;;;12.47;8.47;;;10.50;99.90;;;;;;5028623;28;20441;-56
2023/03/19 03:19:17;;;;;;;13.47;8.57;;;10.50;99.90;;;;;;5029528;28;20495;-68
2023/03/19 03:21:44;;;;;;;19.63;7.60;;;10.50;99.90;;;;;;5022322;28;20483;-63
2023/03/19 03:24:17;;;;;;;12.40;8.00;;;10.50;99.90;;;;;;5044722;28;20468;-63
2023/03/19 03:26:44;;;;;;;13.83;8.17;;;10.50;99.90;;;;;;5056781;28;20460;-63
2023/03/19 03:29:11;;;;;;;13.47;8.47;;;10.50;99.90;;;;;;5057170;28;20428;-65
2023/03/19 03:31:38;;;;;;;12.67;7.70;;;10.50;99.90;;;;;;5031999;28;20472;-68
2023/03/19 03:34:06;;;;;;;11.67;7.93;;;10.40;99.90;;;;;;5026987;28;20531;-63
2023/03/19 03:36:33;;;;;;;13.60;8.17;;;10.40;99.90;;;;;;5037549;28;20469;-58
2023/03/19 03:39:00;;;;;;;10.60;6.97;;;10.40;99.90;;;;;;5034640;28;20482;-68
2023/03/19 03:41:27;;;;;;;14.73;7.73;;;10.30;99.90;;;;;;5024832;28;20460;-68
2023/03/19 03:43:54;;;;;;;16.03;8.87;;;10.30;99.90;;;;;;5041320;28;20483;-63
2023/03/19 03:46:22;;;;;;;11.13;8.13;;;10.30;99.90;;;;;;5036996;28;20455;-63
2023/03/19 03:48:50;;;;;;;15.40;9.10;;;10.30;99.90;;;;;;5034619;28;20481;-62
2023/03/19 03:51:18;;;;;;;13.90;8.90;;;10.30;99.90;;;;;;5027600;28;20948;-66
2023/03/19 03:53:45;;;;;;;11.87;7.47;;;10.30;99.90;;;;;;5020896;28;20510;-67
2023/03/19 03:56:14;;;;;;;16.30;9.00;;;10.30;99.90;;;;;;5055428;28;20499;-66
2023/03/19 03:58:41;;;;;;;17.17;9.03;;;10.20;99.90;;;;;;5046671;28;20456;-70
2023/03/19 04:01:09;;;;;;;12.27;8.80;;;10.10;99.90;;;;;;5031423;28;20465;-67
2023/03/19 04:03:36;;;;;;;15.43;8.50;;;10.10;99.90;;;;;;5036458;28;20480;-67
2023/03/19 04:06:03;;;;;;;12.97;7.93;;;10.10;99.90;;;;;;5035239;28;20445;-62
2023/03/19 04:08:31;;;;;;;13.40;9.20;;;10.00;99.90;;;;;;5036571;28;20498;-65
2023/03/19 04:10:58;;;;;;;13.77;8.23;;;10.00;99.90;;;;;;5039529;28;20445;-64
2023/03/19 04:13:35;;;;;;;12.27;8.33;;;10.00;99.90;;;;;;5048836;28;20479;-65
2023/03/19 04:16:02;;;;;;;14.23;8.47;;;10.00;99.90;;;;;;5055764;28;20452;-63
2023/03/19 04:18:29;;;;;;;13.00;7.90;;;10.00;99.90;;;;;;5056753;28;20471;-53
2023/03/19 04:20:56;;;;;;;13.87;8.50;;;10.00;99.90;;;;;;5057299;28;20559;-64
2023/03/19 04:23:23;;;;;;;9.90;8.20;;;10.00;99.90;;;;;;5052568;28;20480;-60
2023/03/19 04:25:51;;;;;;;15.27;8.23;;;10.00;99.90;;;;;;5040330;28;20461;-68
2023/03/19 04:28:19;;;;;;;15.87;8.30;;;10.10;99.90;;;;;;5032131;28;20472;-61
2023/03/19 04:30:46;;;;;;;13.27;7.93;;;10.10;99.90;;;;;;5025635;28;20449;-64
2023/03/19 04:33:13;;;;;;;11.97;8.30;;;10.00;99.90;;;;;;5038580;28;20468;-61
2023/03/19 04:35:41;;;;;;;13.03;8.20;;;10.10;99.90;;;;;;5042231;28;20515;-53
2023/03/19 04:38:08;;;;;;;16.00;8.73;;;10.10;99.90;;;;;;5050340;28;20466;-56
2023/03/19 04:40:35;;;;;;;12.47;8.63;;;10.00;99.90;;;;;;5037204;28;20429;-61
2023/03/19 04:43:04;;;;;;;12.07;9.00;;;10.00;99.90;;;;;;5038158;28;20569;-66
2023/03/19 04:45:31;;;;;;;14.43;9.40;;;10.00;99.90;;;;;;5037602;28;20475;-58
2023/03/19 04:47:58;;;;;;;15.03;8.50;;;9.90;99.90;;;;;;5037778;28;20495;-62
2023/03/19 04:50:25;;;;;;;16.77;8.27;;;9.90;99.90;;;;;;5042674;28;20553;-62
2023/03/19 04:52:51;;;;;;;14.93;7.43;;;9.90;99.90;;;;;;5049698;28;20451;-67
2023/03/19 04:55:18;;;;;;;18.33;9.00;;;9.90;99.90;;;;;;5048853;28;20483;-63
2023/03/19 04:57:45;;;;;;;13.60;8.60;;;9.90;99.90;;;;;;5056359;28;20495;-58
2023/03/19 05:00:16;;;;;;;19.13;8.47;;;9.90;99.90;;;;;;5054410;28;20458;-63
2023/03/19 05:02:45;;;;;;;15.60;8.97;;;9.90;99.90;;;;;;5040490;28;20477;-57
2023/03/19 05:05:12;;;;;;;12.17;8.73;;;9.90;99.90;;;;;;5045292;28;20471;-61
2023/03/19 05:07:39;;;;;;;12.07;9.30;;;9.90;99.90;;;;;;5035228;28;20513;-67
2023/03/19 05:10:07;;;;;;;13.23;8.67;;;9.90;99.90;;;;;;5034414;28;20468;-70
2023/03/19 05:12:37;;;;;;;13.37;10.00;;;9.90;99.90;;;;;;5036306;28;20464;-61
2023/03/19 05:15:11;;;;;;;14.07;9.73;;;9.90;99.90;;;;;;5035297;28;20444;-64
2023/03/19 05:17:40;;;;;;;16.80;9.97;;;9.90;99.90;;;;;;5041548;28;20479;-63
2023/03/19 05:20:08;;;;;;;12.83;9.33;;;9.90;99.90;;;;;;5040306;28;20477;-69
2023/03/19 05:22:35;;;;;;;12.03;9.17;;;9.90;99.90;;;;;;5044575;28;20519;-62
2023/03/19 05:25:02;;;;;;;19.60;10.40;;;10.00;99.90;;;;;;5041774;28;20741;-67
2023/03/19 05:27:29;;;;;;;17.20;10.23;;;10.00;99.90;;;;;;5047014;28;20456;-61
2023/03/19 05:30:00;;;;;;;16.80;10.97;;;9.90;99.90;;;;;;5051103;28;20496;-61
2023/03/19 05:32:27;;;;;;;16.60;10.33;;;10.00;99.90;;;;;;5036101;28;20456;-54
2023/03/19 05:34:55;;;;;;;24.53;10.60;;;9.90;99.90;;;;;;5035668;28;20457;-60
2023/03/19 05:37:22;;;;;;;14.27;9.67;;;9.90;99.90;;;;;;5035789;28;20452;-63
2023/03/19 05:39:49;;;;;;;15.00;10.63;;;9.90;99.90;;;;;;5035595;28;20460;-62
2023/03/19 05:42:16;;;;;;;22.10;11.47;;;9.80;99.90;;;;;;5034896;28;20477;-62
2023/03/19 05:44:43;;;;;;;14.27;10.10;;;9.90;99.90;;;;;;5040175;28;20952;-64
2023/03/19 05:47:11;;;;;;;16.40;9.93;;;9.90;99.90;;;;;;5046703;28;20452;-59
2023/03/19 05:49:38;;;;;;;16.00;10.33;;;9.90;99.90;;;;;;5055034;28;20433;-62
2023/03/19 05:52:06;;;;;;;23.17;10.50;;;9.90;99.90;;;;;;5042834;28;20463;-63
2023/03/19 05:54:33;;;;;;;17.73;9.73;;;9.90;99.90;;;;;;5049715;28;20475;-65
2023/03/19 05:57:17;;;;;;;17.00;11.83;;;9.90;99.90;;;;;;5054070;28;20453;-63
2023/03/19 05:59:49;;;;;;;18.50;10.10;;;9.90;99.90;;;;;;5035669;28;20491;-67
2023/03/19 06:02:16;;;;;;;15.17;9.97;;;9.90;99.90;;;;;;5033559;28;20456;-68
2023/03/19 06:04:43;;;;;;;15.70;10.10;;;9.90;99.90;;;;;;5029477;28;20518;-61
2023/03/19 06:07:12;;;;;;;13.67;8.80;;;9.80;99.90;;;;;;5036593;28;20477;-61
2023/03/19 06:09:39;;;;;;;17.30;10.57;;;9.80;99.90;;;;;;5045225;28;20470;-63
2023/03/19 06:14:53;;;;;;;17.67;10.20;;;9.80;99.90;;;;;;5009821;28;20966;-71
2023/03/19 06:17:24;;;;;;;16.20;9.33;;;9.90;99.90;;;;;;4996740;28;20516;-69
2023/03/19 06:19:51;;;;;;;18.50;10.23;;;9.90;99.90;;;;;;4977673;28;20463;-70
2023/03/19 06:22:20;;;;;;;13.90;10.13;;;9.90;99.90;;;;;;4983037;28;20458;-69
2023/03/19 06:24:48;;;;;;;13.67;9.17;;;10.00;99.90;;;;;;4992576;28;20477;-68
2023/03/19 06:27:15;;;;;;;17.13;10.10;;;10.00;99.90;;;;;;4993285;28;20562;-68
2023/03/19 06:29:42;;;;;;;17.73;10.50;;;10.10;99.90;;;;;;4990220;28;20482;-70
2023/03/19 06:32:10;;;;;;;16.33;10.23;;;10.20;99.90;;;;;;4991932;28;20478;-70
2023/03/19 06:34:37;;;;;;;12.53;8.30;;;10.20;99.90;;;;;;4982897;28;20920;-68
2023/03/19 06:37:05;;;;;;;13.23;10.17;;;10.30;99.90;;;;;;4984946;28;20891;-70
2023/03/19 06:39:33;;;;;;;14.20;9.60;;;10.30;99.90;;;;;;4981080;28;20497;-70
2023/03/19 06:42:00;;;;;;;15.57;9.17;;;10.30;99.90;;;;;;4983186;28;20501;-67
2023/03/19 06:44:27;;;;;;;12.10;9.00;;;10.30;99.90;;;;;;4989693;28;20494;-68
2023/03/19 06:46:55;;;;;;;12.87;8.53;;;10.30;99.90;;;;;;4989293;28;20464;-68
2023/03/19 06:49:22;;;;;;;12.60;8.80;;;10.40;99.90;;;;;;4993491;28;20512;-69
2023/03/19 06:51:49;;;;;;;14.77;9.07;;;10.50;99.90;;;;;;4986431;28;20974;-70
2023/03/19 06:54:21;;;;;;;14.53;8.77;;;10.50;99.90;;;;;;4980959;28;20455;-69
2023/03/19 06:56:49;;;;;;;20.70;11.20;;;10.50;99.90;;;;;;4992344;28;20817;-70
2023/03/19 06:59:16;;;;;;;14.80;10.20;;;10.50;99.90;;;;;;4988582;28;20490;-67
2023/03/19 07:01:43;;;;;;;13.23;8.17;;;10.50;99.90;;;;;;4995228;28;20486;-70
2023/03/19 07:04:10;;;;;;;15.00;9.00;;;10.40;99.90;;;;;;5001967;28;20509;-69
2023/03/19 07:06:37;;;;;;;14.60;9.23;;;10.40;99.90;;;;;;5004315;28;20868;-68
2023/03/19 07:09:07;;;;;;;19.70;10.83;;;10.40;99.90;;;;;;5002647;28;20485;-69
2023/03/19 07:11:34;;;;;;;17.03;9.63;;;10.30;99.90;;;;;;4995892;28;20571;-68
2023/03/19 07:14:04;;;;;;;14.53;9.50;;;10.20;99.90;;;;;;5005200;28;20513;-65
2023/03/19 07:16:31;;;;;;;14.23;9.97;;;10.30;99.90;;;;;;4998039;28;20450;-66
2023/03/19 07:18:58;;;;;;;14.40;9.93;;;10.20;99.90;;;;;;4991247;28;20683;-67
2023/03/19 07:21:25;;;;;;;19.20;10.40;;;10.20;99.90;;;;;;5003426;28;20981;-67
2023/03/19 07:23:54;;;;;;;14.53;9.70;;;10.20;99.90;;;;;;5003302;28;20890;-70
2023/03/19 07:26:22;;;;;;;15.43;9.23;;;10.20;99.90;;;;;;5002571;28;20482;-69
2023/03/19 07:28:50;;;;;;;13.17;9.63;;;10.20;99.90;;;;;;5006218;28;20497;-67
2023/03/19 07:31:31;;;;;;;14.83;9.50;;;10.20;99.90;;;;;;5015845;28;20441;-67
2023/03/19 07:33:58;;;;;;;16.57;10.23;;;10.30;99.90;;;;;;5007792;28;20433;-69
2023/03/19 07:36:25;;;;;;;13.67;9.10;;;10.30;99.90;;;;;;5008348;28;20512;-69
2023/03/19 07:38:52;;;;;;;16.90;11.13;;;10.40;99.90;;;;;;5008850;28;20508;-70
2023/03/19 07:41:21;;;;;;;15.13;10.53;;;10.50;99.90;;;;;;5007921;28;20466;-69
2023/03/19 07:43:49;;;;;;;14.53;9.33;;;10.70;99.90;;;;;;5003504;28;21012;-70
2023/03/19 07:46:16;;;;;;;17.60;11.50;;;10.90;99.90;;;;;;5011384;28;20818;-68
2023/03/19 07:48:45;;;;;;;12.13;9.23;;;11.20;99.90;;;;;;5006551;28;20466;-70
2023/03/19 07:51:12;;;;;;;19.80;10.60;;;11.30;99.90;;;;;;4998754;28;20469;-70
2023/03/19 07:53:39;;;;;;;17.27;10.40;;;11.60;99.90;;;;;;5000796;28;20458;-71
2023/03/19 07:56:08;;;;;;;16.10;11.17;;;11.90;99.90;;;;;;4994844;28;20490;-70
2023/03/19 07:58:36;;;;;;;15.87;11.23;;;12.20;99.90;;;;;;5001870;28;20497;-69
2023/03/19 08:01:02;;;;;;;16.90;10.10;;;12.40;99.90;;;;;;4994677;28;20446;-71
2023/03/19 08:03:30;;;;;;;13.30;9.07;;;12.50;99.90;;;;;;4993967;28;20529;-70
2023/03/19 08:05:59;;;;;;;13.10;8.30;;;12.50;99.90;;;;;;4981206;28;20521;-70
2023/03/19 08:08:27;;;;;;;15.87;9.50;;;12.60;99.90;;;;;;4982171;28;20502;-69
2023/03/19 08:10:55;;;;;;;14.77;8.53;;;12.70;99.90;;;;;;4979995;28;20427;-70
2023/03/19 08:13:22;;;;;;;14.50;9.33;;;12.80;99.90;;;;;;4979462;28;20458;-69
2023/03/19 08:15:50;;;;;;;16.10;9.50;;;12.80;99.90;;;;;;4987710;28;20453;-71
2023/03/19 08:18:18;;;;;;;19.33;9.37;;;12.90;99.90;;;;;;4995452;28;20537;-69
2023/03/19 08:20:45;;;;;;;13.90;10.10;;;13.10;99.90;;;;;;4989213;28;20942;-69
2023/03/19 08:23:14;;;;;;;13.30;9.13;;;13.30;99.90;;;;;;4997083;28;20523;-68
2023/03/19 08:25:41;;;;;;;14.07;8.40;;;13.40;99.90;;;;;;4997897;28;20844;-69
2023/03/19 08:28:09;;;;;;;11.10;8.73;;;13.40;99.90;;;;;;4997917;28;20498;-70
2023/03/19 08:30:38;;;;;;;10.37;7.47;;;13.30;99.90;;;;;;4981096;28;20466;-72
2023/03/19 08:33:05;;;;;;;10.03;7.87;;;13.20;99.90;;;;;;4988446;28;20952;-69
2023/03/19 08:35:32;;;;;;;9.90;8.10;;;13.10;99.90;;;;;;4979621;28;20467;-68
2023/03/19 08:37:59;;;;;;;13.53;8.20;;;12.80;99.90;;;;;;4991472;28;20478;-70
2023/03/19 08:40:28;;;;;;;12.70;8.77;;;12.60;99.90;;;;;;4996460;28;20961;-69
2023/03/19 08:42:55;;;;;;;13.93;8.07;;;12.60;99.90;;;;;;5002479;28;20966;-70
2023/03/19 08:45:23;;;;;;;13.70;8.80;;;12.40;99.90;;;;;;4995325;28;20815;-69
2023/03/19 08:47:50;;;;;;;15.00;9.57;;;12.30;99.90;;;;;;4999424;28;20499;-68
2023/03/19 08:50:18;;;;;;;16.63;10.47;;;12.20;99.90;;;;;;5008175;28;20430;-68
2023/03/19 08:52:45;;;;;;;15.40;8.87;;;12.00;99.90;;;;;;5004300;28;20442;-70
2023/03/19 08:55:13;;;;;;;19.80;12.40;;;11.80;99.90;;;;;;5005168;28;20427;-69
2023/03/19 08:57:41;;;;;;;16.23;9.70;;;11.60;99.90;;;;;;5001424;28;20443;-70
2023/03/19 09:00:09;;;;;;;18.63;9.67;;;11.50;99.90;;;;;;4986488;28;20911;-70
2023/03/19 09:02:36;;;;;;;20.40;12.27;;;11.30;99.90;;;;;;5000493;28;20466;-68
2023/03/19 09:05:11;;;;;;;19.97;13.10;;;11.10;99.90;;;;;;5008833;28;20489;-68
2023/03/19 09:07:40;;;;;;;17.80;10.73;;;11.00;99.90;;;;;;5011088;28;20484;-68
2023/03/19 09:10:09;;;;;;;16.20;9.50;;;11.00;99.90;;;;;;5003091;28;20469;-68
2023/03/19 09:12:36;;;;;;;16.17;9.60;;;10.90;99.90;;;;;;5000806;28;20485;-68
2023/03/19 09:15:05;;;;;;;16.20;11.57;;;10.90;99.90;;;;;;4996999;28;20454;-68
2023/03/19 09:17:32;;;;;;;13.97;9.63;;;10.90;99.90;;;;;;4996431;28;20613;-67
2023/03/19 09:19:59;;;;;;;14.03;9.90;;;10.80;99.90;;;;;;4995166;28;20446;-67
2023/03/19 09:22:27;;;;;;;16.33;9.80;;;10.80;99.90;;;;;;4991313;28;20443;-67
2023/03/19 09:24:54;;;;;;;17.83;10.37;;;10.80;99.90;;;;;;4975823;28;20513;-67
2023/03/19 09:27:22;;;;;;;16.00;11.00;;;10.80;99.90;;;;;;4980614;28;20461;-68
2023/03/19 09:29:49;;;;;;;14.63;10.07;;;10.90;99.90;;;;;;4974347;28;20842;-67
2023/03/19 09:32:18;;;;;;;16.50;10.37;;;10.90;99.90;;;;;;4983173;28;20593;-68
2023/03/19 09:34:45;;;;;;;18.37;10.50;;;10.90;99.90;;;;;;4996426;28;20485;-68
2023/03/19 09:37:13;;;;;;;13.53;10.00;;;10.90;99.90;;;;;;4996811;28;20545;-67
2023/03/19 09:39:40;;;;;;;18.83;9.53;;;11.00;99.90;;;;;;4995919;28;20467;-67
2023/03/19 09:42:21;;;;;;;15.87;9.97;;;11.00;99.90;;;;;;4997277;28;20441;-68
2023/03/19 09:44:52;;;;;;;11.40;8.97;;;11.10;99.90;;;;;;4996119;28;20493;-66
2023/03/19 09:47:27;;;;;;;13.80;8.87;;;11.20;99.90;;;;;;5006474;28;20498;-67
2023/03/19 09:49:56;;;;;;;12.53;9.07;;;11.20;99.90;;;;;;4991152;28;20457;-66
2023/03/19 09:52:37;;;;;;;15.83;9.30;;;11.30;99.90;;;;;;4978554;28;20471;-67
2023/03/19 09:55:13;;;;;;;16.17;10.27;;;11.30;99.90;;;;;;4977741;28;20466;-66
2023/03/19 09:57:40;;;;;;;15.80;9.53;;;11.40;99.90;;;;;;4982356;28;20473;-65
2023/03/19 10:00:22;;;;;;;15.17;9.57;;;11.50;99.90;;;;;;4988757;28;20956;-66
2023/03/19 10:02:56;;;;;;;15.60;8.13;;;11.60;99.90;;;;;;4994405;28;20505;-67
2023/03/19 10:05:32;;;;;;;12.90;8.63;;;11.60;99.90;;;;;;4992552;28;20493;-68
2023/03/19 10:08:26;;;;;;;14.87;9.80;;;11.70;99.90;;;;;;4995927;28;20509;-68
2023/03/19 10:11:07;;;;;;;14.50;9.03;;;11.70;99.90;;;;;;4992431;28;20535;-67
2023/03/19 10:13:52;;;;;;;13.47;9.57;;;11.90;99.90;;;;;;4997258;28;20461;-66
2023/03/19 10:16:24;;;;;;;16.90;8.70;;;12.10;99.90;;;;;;4991660;28;20466;-67
2023/03/19 10:18:55;;;;;;;14.67;9.80;;;12.30;99.90;;;;;;4983455;28;20481;-67
2023/03/19 10:21:28;;;;;;;13.90;9.70;;;12.40;99.90;;;;;;4983257;28;20422;-65
2023/03/19 10:23:59;;;;;;;15.93;8.83;;;12.50;99.90;;;;;;4985529;28;20453;-66
2023/03/19 10:26:30;;;;;;;12.67;7.70;;;12.50;99.90;;;;;;4993002;28;20454;-67
2023/03/19 10:29:04;;;;;;;13.70;8.20;;;12.50;99.90;;;;;;5007778;28;20458;-67
2023/03/19 10:31:47;;;;;;;12.77;7.87;;;12.50;99.90;;;;;;5004393;28;20500;-67
2023/03/19 10:34:31;;;;;;;13.10;8.70;;;12.60;99.90;;;;;;4995943;28;20527;-67
2023/03/19 10:37:02;;;;;;;14.23;9.47;;;12.50;99.90;;;;;;4991422;28;20439;-66
2023/03/19 10:39:31;;;;;;;16.20;9.37;;;12.60;99.90;;;;;;4988993;28;20473;-68
2023/03/19 10:42:12;;;;;;;14.17;8.93;;;12.70;99.90;;;;;;4992374;28;20526;-66
2023/03/19 10:44:45;;;;;;;14.73;9.17;;;12.70;99.90;;;;;;4998062;28;20493;-67
2023/03/19 10:47:14;;;;;;;14.40;9.00;;;12.80;99.90;;;;;;4997075;28;20496;-65
2023/03/19 10:49:43;;;;;;;13.97;9.50;;;12.90;99.90;;;;;;4986207;28;21058;-67
2023/03/19 10:52:20;;;;;;;12.53;9.90;;;13.10;99.90;;;;;;4991546;28;20516;-68
2023/03/19 10:54:47;;;;;;;13.33;6.67;;;13.20;99.90;;;;;;4992274;28;20461;-67
2023/03/19 10:57:27;;;;;;;13.70;7.97;;;13.60;99.90;;;;;;4979032;28;20822;-67
2023/03/19 10:59:54;;;;;;;9.17;7.07;;;13.70;99.90;;;;;;4977493;28;20442;-67
2023/03/19 11:02:26;;;;;;;12.60;6.40;;;13.90;99.90;;;;;;4989670;28;20486;-67
2023/03/19 11:05:07;;;;;;;11.50;7.03;;;14.00;99.90;;;;;;4985587;28;20554;-67
2023/03/19 11:07:37;;;;;;;13.50;7.27;;;14.20;99.90;;;;;;4980977;28;20469;-67
2023/03/19 11:10:04;;;;;;;11.17;7.50;;;14.30;99.90;;;;;;4986739;28;20498;-67
2023/03/19 11:12:37;;;;;;;12.23;7.53;;;14.40;99.90;;;;;;4982362;28;20453;-65
2023/03/19 11:15:18;;;;;;;12.77;6.57;;;14.40;99.90;;;;;;4980833;28;20486;-68
2023/03/19 11:17:47;;;;;;;10.47;7.67;;;14.60;99.90;;;;;;4985096;28;20501;-67
2023/03/19 11:20:23;;;;;;;9.03;6.87;;;14.80;99.90;;;;;;4976421;28;20494;-69
2023/03/19 11:22:51;;;;;;;9.87;7.20;;;15.00;99.90;;;;;;4981536;28;20465;-69
2023/03/19 11:25:26;;;;;;;8.50;6.47;;;15.20;99.90;;;;;;4980480;28;20480;-67
2023/03/19 11:27:59;;;;;;;10.33;6.60;;;15.30;99.90;;;;;;4994801;28;20484;-67
2023/03/19 11:30:33;;;;;;;17.77;11.47;;;15.30;99.90;;;;;;4983792;28;20483;-67
2023/03/19 11:33:11;;;;;;;10.83;6.97;;;15.30;99.90;;;;;;4985378;28;20481;-67
2023/03/19 11:35:44;;;;;;;10.40;7.20;;;15.40;99.90;;;;;;4983375;28;20481;-69
2023/03/19 11:38:22;;;;;;;7.13;5.53;;;15.30;99.90;;;;;;4989690;28;20483;-67
2023/03/19 11:40:54;;;;;;;10.83;6.23;;;15.30;99.90;;;;;;4981055;28;20480;-66
2023/03/19 11:43:41;;;;;;;9.50;6.17;;;15.30;99.90;;;;;;4988597;28;20458;-67
2023/03/19 11:46:18;;;;;;;9.10;6.57;;;15.30;99.90;;;;;;4991549;28;20557;-66
2023/03/19 11:49:08;;;;;;;7.50;6.00;;;15.30;99.90;;;;;;4987796;28;20584;-67
2023/03/19 11:51:46;;;;;;;9.70;7.00;;;15.30;99.90;;;;;;4981551;28;20562;-67
2023/03/19 11:54:22;;;;;;;8.70;7.07;;;15.30;99.90;;;;;;4992870;28;20458;-68
2023/03/19 11:56:58;;;;;;;13.10;7.60;;;15.30;99.90;;;;;;4994716;28;20555;-68
2023/03/19 11:59:48;;;;;;;12.93;7.20;;;15.20;99.90;;;;;;4994242;28;20537;-69
2023/03/19 12:02:55;;;;;;;8.10;6.00;;;15.30;99.90;;;;;;4978182;28;20469;-68
2023/03/19 12:05:28;;;;;;;7.77;6.90;;;15.30;99.90;;;;;;4994173;28;20470;-67
2023/03/19 12:08:07;;;;;;;8.87;6.67;;;15.40;99.90;;;;;;4987017;28;20482;-68
2023/03/19 12:10:53;;;;;;;9.57;7.00;;;15.40;99.90;;;;;;4986504;28;20550;-68
2023/03/19 12:13:35;;;;;;;7.47;6.53;;;15.40;99.90;;;;;;4995519;28;20481;-68
2023/03/19 12:16:10;;;;;;;9.03;5.93;;;15.30;99.90;;;;;;4992642;28;20815;-67
2023/03/19 12:18:56;;;;;;;11.43;5.87;;;15.30;99.90;;;;;;4985682;28;20512;-68
2023/03/19 12:21:36;;;;;;;8.63;5.60;;;15.30;99.90;;;;;;4984373;28;20465;-66
2023/03/19 12:24:11;;;;;;;8.20;6.20;;;15.30;99.90;;;;;;4988163;28;20982;-66
2023/03/19 12:26:53;;;;;;;7.83;7.03;;;15.30;99.90;;;;;;4995235;28;20563;-67
2023/03/19 12:29:27;;;;;;;7.33;5.70;;;15.30;99.90;;;;;;4996656;28;20485;-67
2023/03/19 12:32:06;;;;;;;11.27;7.37;;;15.30;99.90;;;;;;4983913;28;20486;-68
2023/03/19 12:34:40;;;;;;;9.17;7.27;;;15.40;99.90;;;;;;4996121;28;20469;-68
2023/03/19 12:37:21;;;;;;;8.57;6.63;;;15.40;99.90;;;;;;4991176;28;20800;-69
2023/03/19 12:39:59;;;;;;;11.23;6.47;;;15.50;99.90;;;;;;4978154;28;20457;-62
2023/03/19 12:42:29;;;;;;;9.90;6.70;;;15.70;99.90;;;;;;4990390;28;20461;-67
2023/03/19 12:44:59;;;;;;;11.17;7.33;;;15.80;99.90;;;;;;4992925;28;20510;-65
2023/03/19 12:47:30;;;;;;;10.17;6.83;;;15.90;99.90;;;;;;4989349;28;20493;-66
2023/03/19 12:50:03;;;;;;;9.80;6.40;;;16.00;99.90;;;;;;4981096;28;20571;-66
2023/03/19 12:52:35;;;;;;;9.80;6.03;;;16.10;99.90;;;;;;4991102;28;20489;-65
2023/03/19 12:55:14;;;;;;;8.37;6.37;;;16.00;99.90;;;;;;4991796;28;20533;-65